createdAt,value
2023-03-26T00:00:53.690Z,7.30
2023-03-26T00:06:44.388Z,8.00
2023-03-26T00:12:11.046Z,5.10
2023-03-26T00:17:39.353Z,4.90
2023-03-26T00:23:06.948Z,10.60
2023-03-26T00:28:31.032Z,7.70
2023-03-26T00:34:05.823Z,10.60
2023-03-26T00:39:50.315Z,6.30
2023-03-26T00:45:27.680Z,5.30
2023-03-26T00:51:16.256Z,4.20
2023-03-26T00:57:11.526Z,6.60
2023-03-26T01:03:53.096Z,7.70
2023-03-26T01:09:33.958Z,7.90
2023-03-26T01:15:08.853Z,5.50
2023-03-26T01:21:04.876Z,7.80
2023-03-26T01:27:41.773Z,5.60
2023-03-26T01:33:37.421Z,10.40
2023-03-26T01:39:52.830Z,8.60
2023-03-26T01:46:02.029Z,9.10
2023-03-26T01:52:20.215Z,8.40
2023-03-26T01:58:36.166Z,11.40
2023-03-26T02:05:02.462Z,11.90
2023-03-26T02:10:31.205Z,7.90
2023-03-26T02:16:41.810Z,13.10
2023-03-26T02:22:41.874Z,8.60
2023-03-26T02:28:40.870Z,8.10
2023-03-26T02:34:57.807Z,11.00
2023-03-26T02:40:29.764Z,12.10
2023-03-26T02:45:50.588Z,9.30
2023-03-26T02:52:05.892Z,8.40
2023-03-26T02:57:33.557Z,9.40
2023-03-26T03:04:17.566Z,9.30
2023-03-26T03:10:44.395Z,9.90
2023-03-26T03:16:45.036Z,9.00
2023-03-26T03:23:19.336Z,13.90
2023-03-26T03:30:11.505Z,14.20
2023-03-26T03:37:03.167Z,12.00
2023-03-26T03:42:57.394Z,12.00
2023-03-26T03:49:51.699Z,7.60
2023-03-26T03:55:58.774Z,8.30
2023-03-26T04:02:53.557Z,6.80
2023-03-26T04:08:26.277Z,8.40
2023-03-26T04:13:58.300Z,6.20
2023-03-26T04:20:18.193Z,10.30
2023-03-26T04:26:00.859Z,8.70
2023-03-26T04:38:02.048Z,8.80
2023-03-26T04:44:04.331Z,6.50
2023-03-26T04:50:28.053Z,7.70
2023-03-26T04:55:54.253Z,7.60
2023-03-26T05:02:12.665Z,7.30
2023-03-26T05:08:12.566Z,6.50
2023-03-26T05:14:06.513Z,8.50
2023-03-26T05:20:04.449Z,10.20
2023-03-26T05:25:46.668Z,10.50
2023-03-26T05:31:53.106Z,4.90
2023-03-26T05:38:33.554Z,7.60
2023-03-26T05:45:00.179Z,8.70
2023-03-26T05:51:50.828Z,12.00
2023-03-26T05:58:41.774Z,7.10
2023-03-26T06:04:56.491Z,10.70
2023-03-26T06:10:53.603Z,7.90
2023-03-26T06:17:23.728Z,7.80
2023-03-26T06:24:22.227Z,6.80
2023-03-26T06:30:31.147Z,13.90
2023-03-26T06:37:31.893Z,8.30
2023-03-26T06:44:19.531Z,6.00
2023-03-26T06:51:05.427Z,10.50
2023-03-26T06:57:25.875Z,7.70
2023-03-26T07:04:12.433Z,12.40
2023-03-26T07:11:13.991Z,11.60
2023-03-26T07:17:26.038Z,8.60
2023-03-26T07:23:48.057Z,14.00
2023-03-26T07:30:33.513Z,10.50
2023-03-26T07:37:25.628Z,7.80
2023-03-26T07:43:53.155Z,13.10
2023-03-26T07:49:30.959Z,21.60
2023-03-26T07:55:14.045Z,6.90
2023-03-26T08:01:53.471Z,11.00
2023-03-26T08:07:31.699Z,9.80
2023-03-26T08:13:20.443Z,7.10
2023-03-26T08:19:17.157Z,10.00
2023-03-26T08:25:19.111Z,7.80
2023-03-26T08:31:21.132Z,6.90
2023-03-26T08:37:50.769Z,12.30
2023-03-26T08:44:22.097Z,8.40
2023-03-26T08:50:41.422Z,10.40
2023-03-26T08:56:46.452Z,7.00
2023-03-26T09:03:29.053Z,10.20
2023-03-26T09:08:59.457Z,6.70
2023-03-26T09:15:20.657Z,8.20
2023-03-26T09:21:43.762Z,8.90
2023-03-26T09:28:15.327Z,12.10
2023-03-26T09:34:49.971Z,7.20
2023-03-26T09:41:16.027Z,7.10
2023-03-26T09:46:37.152Z,7.70
2023-03-26T09:52:39.550Z,7.00
2023-03-26T09:58:09.936Z,8.80
2023-03-26T10:03:29.126Z,6.50
2023-03-26T10:09:27.007Z,8.20
2023-03-26T10:15:25.177Z,13.40
2023-03-26T10:21:55.993Z,9.10
2023-03-26T10:27:54.660Z,10.60
2023-03-26T10:34:10.668Z,8.40
2023-03-26T10:40:48.125Z,11.40
2023-03-26T10:46:27.599Z,7.50
2023-03-26T10:51:58.398Z,3.20
2023-03-26T10:57:37.442Z,7.70
2023-03-26T11:03:30.998Z,6.30
2023-03-26T11:09:54.909Z,5.60
2023-03-26T11:16:25.357Z,7.40
2023-03-26T11:22:21.226Z,5.80
2023-03-26T11:28:20.896Z,3.50
2023-03-26T11:33:49.195Z,3.90
2023-03-26T11:39:32.346Z,6.30
2023-03-26T11:45:18.694Z,4.60
2023-03-26T11:51:24.563Z,4.50
2023-03-26T11:57:06.062Z,4.80
2023-03-26T12:03:23.383Z,2.60
2023-03-26T12:08:41.533Z,5.30
2023-03-26T12:14:58.214Z,5.60
2023-03-26T12:20:46.654Z,5.00
2023-03-26T12:26:54.411Z,4.30
2023-03-26T12:32:16.982Z,7.00
2023-03-26T12:37:43.924Z,6.70
2023-03-26T12:44:50.125Z,5.60
2023-03-26T12:48:26.561Z,4.40
2023-03-26T12:54:02.346Z,5.40
2023-03-26T12:59:25.919Z,9.50
2023-03-26T13:05:05.102Z,5.50
2023-03-26T13:10:50.925Z,12.00
2023-03-26T13:16:03.495Z,8.00
2023-03-26T13:21:11.793Z,6.50
2023-03-26T13:26:35.284Z,5.20
2023-03-26T13:32:08.372Z,9.40
2023-03-26T13:37:28.072Z,6.00
2023-03-26T13:43:40.481Z,5.80
2023-03-26T13:48:59.787Z,6.50
2023-03-26T13:54:16.085Z,6.50
2023-03-26T13:59:30.050Z,8.40
2023-03-26T14:05:05.132Z,8.20
2023-03-26T14:10:55.532Z,7.40
2023-03-26T14:17:01.200Z,8.80
2023-03-26T14:23:09.242Z,7.20
2023-03-26T14:28:24.530Z,7.70
2023-03-26T14:33:38.722Z,5.10
2023-03-26T14:39:21.228Z,6.90
2023-03-26T14:45:09.161Z,5.80
2023-03-26T14:56:15.658Z,5.40
2023-03-26T15:01:25.538Z,6.40
2023-03-26T15:07:12.495Z,10.70
2023-03-26T15:12:42.839Z,5.70
2023-03-26T15:18:23.027Z,5.90
2023-03-26T15:23:34.054Z,8.40
2023-03-26T15:29:24.845Z,9.50
2023-03-26T15:34:50.675Z,9.50
2023-03-26T15:45:57.544Z,8.60
2023-03-26T15:52:00.294Z,8.10
2023-03-26T15:57:26.445Z,8.60
2023-03-26T16:02:38.502Z,7.00
2023-03-26T16:08:21.033Z,7.00
2023-03-26T16:14:08.913Z,7.60
2023-03-26T16:19:22.730Z,9.40
2023-03-26T16:25:26.579Z,4.80
2023-03-26T16:31:39.570Z,10.60
2023-03-26T16:36:49.386Z,13.90
2023-03-26T16:42:06.226Z,13.00
2023-03-26T16:48:11.114Z,11.40
2023-03-26T16:54:54.796Z,13.40
2023-03-26T17:01:28.749Z,16.30
2023-03-26T17:06:53.552Z,14.80
2023-03-26T17:12:55.089Z,14.80
2023-03-26T17:19:19.123Z,9.80
2023-03-26T17:24:43.832Z,8.90
2023-03-26T17:30:27.093Z,10.90
2023-03-26T17:35:49.461Z,7.90
2023-03-26T17:41:01.407Z,14.40
2023-03-26T17:46:44.764Z,8.80
2023-03-26T17:52:16.635Z,9.20
2023-03-26T17:58:25.461Z,9.20
2023-03-26T18:04:07.749Z,12.90
2023-03-26T18:09:38.556Z,6.70
2023-03-26T18:15:25.198Z,8.50
2023-03-26T18:20:31.519Z,8.10
2023-03-26T18:25:34.700Z,10.20
2023-03-26T18:30:47.827Z,11.70
2023-03-26T18:35:58.342Z,11.10
2023-03-26T18:41:05.607Z,9.30
2023-03-26T18:46:12.520Z,13.30
2023-03-26T18:51:23.360Z,11.90
2023-03-26T18:56:36.221Z,11.60
2023-03-26T19:01:38.507Z,17.20
2023-03-26T19:06:48.831Z,10.10
2023-03-26T19:11:58.062Z,10.90
2023-03-26T19:18:05.383Z,16.80
2023-03-26T19:24:32.346Z,14.80
2023-03-26T19:29:54.700Z,12.30
2023-03-26T19:35:02.495Z,12.10
2023-03-26T19:40:34.447Z,14.30
2023-03-26T19:46:54.014Z,13.60
2023-03-26T19:52:32.327Z,14.20
2023-03-26T19:57:48.187Z,13.40
2023-03-26T20:03:04.103Z,17.10
2023-03-26T20:08:40.522Z,19.80
2023-03-26T20:13:44.439Z,22.50
2023-03-26T20:19:48.250Z,25.00
2023-03-26T20:25:20.299Z,25.30
2023-03-26T20:30:37.327Z,27.80
2023-03-26T20:35:53.485Z,24.30
2023-03-26T20:41:16.831Z,23.40
2023-03-26T20:46:40.132Z,31.50
2023-03-26T20:52:07.378Z,28.50
2023-03-26T20:57:29.058Z,25.40
2023-03-26T21:02:42.005Z,30.60
2023-03-26T21:08:04.025Z,27.30
2023-03-26T21:13:28.342Z,23.00
2023-03-26T21:18:35.074Z,21.90
2023-03-26T21:24:04.586Z,21.60
2023-03-26T21:29:16.833Z,21.40
2023-03-26T21:34:19.861Z,24.80
2023-03-26T21:39:25.274Z,19.50
2023-03-26T21:44:28.689Z,23.30
2023-03-26T21:49:46.497Z,21.70
2023-03-26T21:55:04.082Z,19.40
2023-03-26T22:00:28.231Z,18.70
2023-03-26T22:06:10.946Z,17.50
2023-03-26T22:12:23.655Z,28.00
2023-03-26T22:18:37.407Z,29.70
2023-03-26T22:24:08.355Z,26.30
2023-03-26T22:30:22.839Z,33.40
2023-03-26T22:35:45.647Z,39.20
2023-03-26T22:40:59.062Z,45.80
2023-03-26T22:46:32.499Z,42.50
2023-03-26T22:52:13.008Z,46.40
2023-03-26T22:57:43.937Z,44.70
2023-03-26T23:02:52.796Z,45.30
2023-03-26T23:08:26.732Z,47.90
2023-03-26T23:14:11.018Z,47.10
2023-03-26T23:19:33.121Z,47.20
2023-03-26T23:25:25.281Z,52.40
2023-03-26T23:30:57.233Z,36.70
2023-03-26T23:36:33.883Z,33.20
2023-03-26T23:42:04.710Z,27.00
2023-03-26T23:47:52.646Z,27.60
2023-03-26T23:53:28.495Z,36.90
2023-03-26T23:59:41.412Z,30.10
